SBOSBO SJO / MROC
Speedbird OnlineSpeedbird Online SJO / MROC

Juan Santamaria International Airport
18:32 21.2°C

Location San Jose, Costa Rica
Latitude: 9.993860244750977
Longitude: -84.20880126953125
Web Wikipedia
Altitude 921 Meter / 3021 Feet
Distance 8,748 KM / 5,436 Miles
from London.
Time Zone UTC -6 hours (America/Costa_Rica)
Codes IATA: SJO
ICAO: MROC
Currency £1 equals CRC 694.13
Runways
RunwayLength (m)Surface
073012Asphalt
253012Asphalt
Radio
TypeDescriptionFrequency
ACCCOCO CON119.6
APPCOCO APP120.5
CLDCLNC121.3
GNDGND121.9
RDOCOCO RDO126.8
TWRCOCO TWR118.6
Live ATC
METAR MROC 270000Z 08009KT 9999 FEW045 22/12 A3002 NOSIG
TAF MROC 262308Z 2700/2724 09014KT 9999 FEW040 TX29/2719Z TN19/2710Z TEMPO 2713/2720 08017G29KT
Weather As Of 26 Jan 2023 18:32
Description Few clouds
Wind 22 km/h from East (100°)
Cloud Cover 20%
Precipitation Rain: none, Snow: none
Sunrise 05:59
Sunset 17:39
Lounges VIP Santamaría, Terminal 1
Rotations During the last 90 days there were
29 flights from LGW
34 flights to LGW



Support Speedbird Online

© 2017-2023 Speedbird Online